Aviation



KPVE - Beech River Regional Airport
Distance from Parsons: NW 4mi, 6km
Updated: Thu, 25-May-2017 11:15am CDT
Few Clouds
Few Clouds
 
Temperature: 70°F , 21°C
Dew Point: 50°F , 10°C
Humidity: 50%
Barometer: 29.78 inHg , 1008.5 hPa
Clouds: Few Clouds
Visibility: 10 miles , 16 km
Cloud details: Few Clouds 4000 ft
2017/05/25 16:15 KPVE 251615Z AUTO 10SM FEW040 21/10 A2978 RMK A01
KSNH - Savannah Hardin Co. Airport
Distance from Parsons: S 34mi, 54km
Updated: Thu, 25-May-2017 11:15am CDT
Partly cloudy
Partly cloudy
 Wind from W
Wind: W 10 mph , 17 km/h
Temperature: 68°F , 20°C
Dew Point: 52°F , 11°C
Humidity: 56%
Barometer: 29.80 inHg , 1009.1 hPa
Clouds: Partly cloudy
Visibility: 10 miles , 16 km
Cloud details: Partly cloudy 4100 ft
Partly cloudy 4800 ft
2017/05/25 16:15 KSNH 251615Z AUTO 28009KT 10SM SCT041 SCT048 20/11 A2980 RMK A01
 
KMKL - McKellar-Sipes Regional Airport
Distance from Parsons: W 44mi, 72km
Updated: Thu, 25-May-2017 10:53am CDT
Partly cloudy
Partly cloudy
 Wind from WNW
Wind: WNW 10 mph , 17 km/h, Gust: 18 mph , 30 km/h
Temperature: 70°F , 21°C
Dew Point: 52°F , 11°C
Humidity: 53%
Barometer: 29.79 inHg , 1008.8 hPa
Clouds: Partly cloudy
Visibility: 10 miles , 16 km
Cloud details: Partly cloudy 3500 ft
2017/05/25 15:53 KMKL 251553Z 29009G16KT 260V320 10SM SCT035 21/11 A2979 RMK AO2 SLP086 T02110106
KMSL - NW Alabama Regional Airport
Distance from Parsons: SE 78mi, 126km
Updated: Thu, 25-May-2017 10:53am CDT
Clear
Clear
 Wind from W
Wind: W 13 mph , 20 km/h
Temperature: 70°F , 21°C
Dew Point: 52°F , 11°C
Humidity: 53%
Barometer: 29.82 inHg , 1009.8 hPa
Clouds: Clear
Visibility: 10 miles , 16 km
2017/05/25 15:53 KMSL 251553Z AUTO 26011KT 10SM CLR 21/11 A2982 RMK AO2 SLP092 T02110111
 
KBNA - Nashville, TN, USA
Distance from Parsons: NE 97mi, 157km
Updated: Thu, 25-May-2017 10:53am CDT
Mostly cloudy
Mostly cloudy
 Wind from W
Wind: W 14 mph , 22 km/h, Gust: 28 mph , 44 km/h
Temperature: 66°F , 19°C
Dew Point: 52°F , 11°C
Humidity: 60%
Barometer: 29.73 inHg , 1006.8 hPa
Clouds: Mostly cloudy
Visibility: 10 miles , 16 km
Cloud details: Mostly cloudy 3100 ft
Mostly cloudy 13000 ft
2017/05/25 15:53 KBNA 251553Z 26012G24KT 10SM BKN031 BKN130 19/11 A2973 RMK AO2 SLP064 T01940111
KMEM - Memphis, TN, USA
Distance from Parsons: W 108mi, 173km
Updated: Thu, 25-May-2017 10:54am CDT
Few Clouds
Few Clouds
 Wind from SW
Wind: SW 12 mph , 19 km/h
Temperature: 68°F , 20°C
Dew Point: 52°F , 11°C
Humidity: 56%
Barometer: 29.82 inHg , 1009.8 hPa
Clouds: Few Clouds
Visibility: 10 miles , 16 km
Cloud details: Few Clouds 3000 ft
2017/05/25 15:54 KMEM 251554Z 23010KT 10SM FEW030 20/11 A2982 RMK AO2 SLP096 T02000106
 
KTYS - Knoxville, TN, USA
Distance from Parsons: E 234mi, 377km
Updated: Thu, 25-May-2017 10:53am CDT
Mostly cloudy
Mostly cloudy
 Wind from SW
Wind: SW 16 mph , 26 km/h
Temperature: 61°F , 16°C
Dew Point: 54°F , 12°C
Humidity: 77%
Barometer: 29.69 inHg , 1005.4 hPa
Clouds: Mostly cloudy
Visibility: 10 miles , 16 km
Cloud details: Few Clouds 2900 ft
Mostly cloudy 11000 ft
2017/05/25 15:53 KTYS 251553Z 22014KT 10SM FEW029 BKN110 16/12 A2969 RMK AO2 SLP048 T01560117
KSTL - St. Louis, MO, USA
Distance from Parsons: NW 247mi, 398km
Updated: Thu, 25-May-2017 10:51am CDT
Few Clouds
Few Clouds
 Wind from NW
Wind: NW 13 mph , 20 km/h
Temperature: 70°F , 21°C
Dew Point: 52°F , 11°C
Humidity: 53%
Barometer: 29.72 inHg , 1006.4 hPa
Clouds: Few Clouds
Visibility: 10 miles , 16 km
Cloud details: Few Clouds 3000 ft
2017/05/25 15:51 KSTL 251551Z 32011KT 10SM FEW030 21/11 A2972 RMK AO2 SLP060 T02060111

Refresh Page for latest data.